createdAt,value
2019-05-07T00:01:23.309Z,5.87
2019-05-07T00:03:53.292Z,5.97
2019-05-07T00:06:23.252Z,5.47
2019-05-07T00:08:53.023Z,5.17
2019-05-07T00:11:22.824Z,5.42
2019-05-07T00:13:53.636Z,5.87
2019-05-07T00:16:23.490Z,5.53
2019-05-07T00:18:53.292Z,5.35
2019-05-07T00:21:23.484Z,5.60
2019-05-07T00:23:53.276Z,5.87
2019-05-07T00:26:22.969Z,6.92
2019-05-07T00:28:52.886Z,7.05
2019-05-07T00:31:23.244Z,8.00
2019-05-07T00:33:53.243Z,8.50
2019-05-07T00:36:42.216Z,8.75
2019-05-07T00:39:22.643Z,7.95
2019-05-07T00:41:59.331Z,7.62
2019-05-07T00:44:29.845Z,7.25
2019-05-07T00:47:02.092Z,6.78
2019-05-07T00:49:33.166Z,6.53
2019-05-07T00:52:03.088Z,5.95
2019-05-07T00:54:32.897Z,5.72
2019-05-07T00:57:03.339Z,5.78
2019-05-07T00:59:34.019Z,5.45
2019-05-07T01:02:03.776Z,5.25
2019-05-07T01:04:33.483Z,5.35
2019-05-07T01:07:03.321Z,5.20
2019-05-07T01:09:43.103Z,5.03
2019-05-07T01:12:12.983Z,4.92
2019-05-07T01:14:43.795Z,5.20
2019-05-07T01:17:13.702Z,4.70
2019-05-07T01:19:43.543Z,5.53
2019-05-07T01:22:13.232Z,5.92
2019-05-07T01:24:43.436Z,5.30
2019-05-07T01:27:13.247Z,4.83
2019-05-07T01:29:43.086Z,4.92
2019-05-07T01:32:30.487Z,4.58
2019-05-07T01:35:06.817Z,4.92
2019-05-07T01:37:36.556Z,4.95
2019-05-07T01:40:12.104Z,4.67
2019-05-07T01:42:42.512Z,4.67
2019-05-07T01:45:24.850Z,4.90
2019-05-07T01:47:54.869Z,5.17
2019-05-07T01:50:24.623Z,4.53
2019-05-07T01:52:54.344Z,4.87
2019-05-07T01:55:24.102Z,4.53
2019-05-07T01:57:53.803Z,5.17
2019-05-07T02:00:24.027Z,4.60
2019-05-07T02:02:59.795Z,4.95
2019-05-07T02:05:46.180Z,4.30
2019-05-07T02:08:22.222Z,4.58
2019-05-07T02:11:02.088Z,4.42
2019-05-07T02:13:33.817Z,4.50
2019-05-07T02:16:04.238Z,4.70
2019-05-07T02:18:34.270Z,4.90
2019-05-07T02:21:04.123Z,4.30
2019-05-07T02:23:33.886Z,4.60
2019-05-07T02:26:03.740Z,4.42
2019-05-07T02:28:33.588Z,4.70
2019-05-07T02:31:04.107Z,4.05
2019-05-07T02:33:35.133Z,4.40
2019-05-07T02:38:48.300Z,4.47
2019-05-07T02:41:23.417Z,4.15
2019-05-07T02:43:53.725Z,4.35
2019-05-07T02:46:32.940Z,3.90
2019-05-07T02:49:13.505Z,4.45
2019-05-07T02:51:53.139Z,4.08
2019-05-07T02:54:32.909Z,4.20
2019-05-07T02:57:03.581Z,4.35
2019-05-07T02:59:33.837Z,4.50
2019-05-07T03:02:03.916Z,4.08
2019-05-07T03:04:33.606Z,3.58
2019-05-07T03:07:04.080Z,4.53
2019-05-07T03:09:33.785Z,4.33
2019-05-07T03:12:04.117Z,4.03
2019-05-07T03:14:33.921Z,3.83
2019-05-07T03:17:03.812Z,4.42
2019-05-07T03:19:35.303Z,4.70
2019-05-07T03:22:05.158Z,3.92
2019-05-07T03:24:46.855Z,4.03
2019-05-07T03:27:16.586Z,4.25
2019-05-07T03:29:54.093Z,3.98
2019-05-07T03:32:37.867Z,4.05
2019-05-07T03:37:58.187Z,3.98
2019-05-07T03:40:28.898Z,4.20
2019-05-07T03:43:01.845Z,4.75
2019-05-07T03:45:58.065Z,4.35
2019-05-07T03:48:28.860Z,4.33
2019-05-07T03:50:58.539Z,3.95
2019-05-07T03:53:28.329Z,4.33
2019-05-07T03:55:58.205Z,4.58
2019-05-07T03:58:27.995Z,4.53
2019-05-07T04:01:03.929Z,4.17
2019-05-07T04:03:34.144Z,4.25
2019-05-07T04:06:03.995Z,4.28
2019-05-07T04:08:33.969Z,4.42
2019-05-07T04:11:04.184Z,4.28
2019-05-07T04:13:34.126Z,3.92
2019-05-07T04:16:04.446Z,4.20
2019-05-07T04:18:34.395Z,4.30
2019-05-07T04:21:04.426Z,3.98
2019-05-07T04:23:34.641Z,4.23
2019-05-07T04:26:16.328Z,4.17
2019-05-07T04:29:06.600Z,4.35
2019-05-07T04:31:43.027Z,3.90
2019-05-07T04:34:23.775Z,4.17
2019-05-07T04:36:53.471Z,4.15
2019-05-07T04:39:23.554Z,4.53
2019-05-07T04:42:05.442Z,4.97
2019-05-07T04:44:39.303Z,3.95
2019-05-07T04:47:08.936Z,4.22
2019-05-07T04:49:38.518Z,4.08
2019-05-07T04:52:15.371Z,4.40
2019-05-07T04:54:45.240Z,4.70
2019-05-07T04:57:26.932Z,4.85
2019-05-07T04:59:58.537Z,4.70
2019-05-07T05:02:46.013Z,4.60
2019-05-07T05:05:16.500Z,4.28
2019-05-07T05:07:46.108Z,4.90
2019-05-07T05:10:15.692Z,5.12
2019-05-07T05:12:46.351Z,5.05
2019-05-07T05:15:15.956Z,4.28
2019-05-07T05:17:50.929Z,4.50
2019-05-07T05:20:22.195Z,4.60
2019-05-07T05:23:07.187Z,5.17
2019-05-07T05:25:43.281Z,5.08
2019-05-07T05:28:16.653Z,4.80
2019-05-07T05:30:55.839Z,4.12
2019-05-07T05:33:25.427Z,4.87
2019-05-07T05:35:55.015Z,4.58
2019-05-07T05:38:24.583Z,4.25
2019-05-07T05:40:55.984Z,4.30
2019-05-07T05:43:52.838Z,4.28
2019-05-07T05:46:24.633Z,4.85
2019-05-07T05:48:56.741Z,4.30
2019-05-07T05:51:48.053Z,4.83
2019-05-07T05:54:37.050Z,4.12
2019-05-07T05:57:25.820Z,4.70
2019-05-07T06:03:27.380Z,4.78
2019-05-07T06:06:03.771Z,4.65
2019-05-07T06:08:52.509Z,4.67
2019-05-07T06:11:38.339Z,4.12
2019-05-07T06:14:13.037Z,4.65
2019-05-07T06:16:56.520Z,4.50
2019-05-07T06:19:38.586Z,4.78
2019-05-07T06:22:39.647Z,4.58
2019-05-07T06:25:16.225Z,4.58
2019-05-07T06:27:45.906Z,5.65
2019-05-07T06:30:16.826Z,5.37
2019-05-07T06:35:19.331Z,5.35
2019-05-07T06:37:48.882Z,6.05
2019-05-07T06:40:46.864Z,5.58
2019-05-07T06:43:42.048Z,5.95
2019-05-07T06:46:12.521Z,6.47
2019-05-07T06:48:45.940Z,6.03
2019-05-07T06:51:17.669Z,6.10
2019-05-07T06:53:47.784Z,7.22
2019-05-07T06:56:45.431Z,6.80
2019-05-07T06:59:22.516Z,7.00
2019-05-07T07:02:05.343Z,6.65
2019-05-07T07:04:52.098Z,6.97
2019-05-07T07:07:37.027Z,7.03
2019-05-07T07:10:26.877Z,7.10
2019-05-07T07:12:56.687Z,7.10
2019-05-07T07:15:26.658Z,7.78
2019-05-07T07:18:02.982Z,8.00
2019-05-07T07:20:32.735Z,8.98
2019-05-07T07:23:02.504Z,8.83
2019-05-07T07:25:32.703Z,7.87
2019-05-07T07:28:04.590Z,7.55
2019-05-07T07:30:42.079Z,6.97
2019-05-07T07:33:12.230Z,7.53
2019-05-07T07:35:42.828Z,7.03
2019-05-07T07:38:32.670Z,6.92
2019-05-07T07:41:13.730Z,7.78
2019-05-07T07:43:43.351Z,6.90
2019-05-07T07:46:18.810Z,6.95
2019-05-07T07:49:03.179Z,6.70
2019-05-07T07:51:34.300Z,6.92
2019-05-07T07:53:55.919Z,6.72
2019-05-07T07:57:02.382Z,7.58
2019-05-07T07:59:53.998Z,6.05
2019-05-07T08:02:42.441Z,6.65
2019-05-07T08:05:12.667Z,7.40
2019-05-07T08:07:42.770Z,6.65
2019-05-07T08:10:13.025Z,6.80
2019-05-07T08:12:43.003Z,6.58
2019-05-07T08:15:18.055Z,6.28
2019-05-07T08:18:13.768Z,6.65
2019-05-07T08:20:53.666Z,6.42
2019-05-07T08:23:24.189Z,5.95
2019-05-07T08:25:57.267Z,5.62
2019-05-07T08:28:32.250Z,5.40
2019-05-07T08:31:26.568Z,5.00
2019-05-07T08:34:15.386Z,5.65
2019-05-07T08:36:46.293Z,6.03
2019-05-07T08:41:49.529Z,5.58
2019-05-07T08:44:22.305Z,5.87
2019-05-07T08:47:23.455Z,5.67
2019-05-07T08:52:23.405Z,5.50
2019-05-07T08:54:54.329Z,5.80
2019-05-07T08:57:24.585Z,5.25
2019-05-07T09:00:00.861Z,5.58
2019-05-07T09:02:26.774Z,5.50
2019-05-07T09:04:56.780Z,5.85
2019-05-07T09:07:26.582Z,5.40
2019-05-07T09:09:56.198Z,4.97
2019-05-07T09:12:25.766Z,5.20
2019-05-07T09:14:57.456Z,5.22
2019-05-07T09:17:26.983Z,5.35
2019-05-07T09:19:56.643Z,5.50
2019-05-07T09:22:26.293Z,5.83
2019-05-07T09:24:55.851Z,6.17
2019-05-07T09:27:37.759Z,6.17
2019-05-07T09:30:52.557Z,6.00
2019-05-07T09:33:39.265Z,6.47
2019-05-07T09:36:22.809Z,7.00
2019-05-07T09:38:56.947Z,6.30
2019-05-07T09:41:32.693Z,6.67
2019-05-07T09:44:03.153Z,7.03
2019-05-07T09:46:33.987Z,7.37
2019-05-07T09:49:03.565Z,7.08
2019-05-07T09:51:33.248Z,7.12
2019-05-07T09:54:02.850Z,6.92
2019-05-07T09:56:32.465Z,7.17
2019-05-07T09:59:02.298Z,6.83
2019-05-07T10:04:02.621Z,7.12
2019-05-07T10:06:33.420Z,6.65
2019-05-07T10:09:03.181Z,7.30
2019-05-07T10:14:12.395Z,6.72
2019-05-07T10:17:02.740Z,7.03
2019-05-07T10:19:33.726Z,7.17
2019-05-07T10:22:12.450Z,6.70
2019-05-07T10:24:43.607Z,6.83
2019-05-07T10:27:14.393Z,6.90
2019-05-07T10:29:44.937Z,6.45
2019-05-07T10:32:15.562Z,6.78
2019-05-07T10:34:45.166Z,6.72
2019-05-07T10:37:14.817Z,6.55
2019-05-07T10:39:44.539Z,6.45
2019-05-07T10:42:14.251Z,6.70
2019-05-07T10:44:52.435Z,5.90
2019-05-07T10:47:44.174Z,6.00
2019-05-07T10:50:38.020Z,5.55
2019-05-07T10:52:57.823Z,5.87
2019-05-07T10:55:27.412Z,5.85
2019-05-07T10:57:57.063Z,6.03
2019-05-07T11:00:27.295Z,6.12
2019-05-07T11:02:56.930Z,6.28
2019-05-07T11:05:26.599Z,5.72
2019-05-07T11:07:56.599Z,6.15
2019-05-07T11:10:26.433Z,6.20
2019-05-07T11:12:56.264Z,7.22
2019-05-07T11:15:28.261Z,6.33
2019-05-07T11:18:08.233Z,6.40
2019-05-07T11:20:47.414Z,6.65
2019-05-07T11:23:13.211Z,6.83
2019-05-07T11:25:43.590Z,5.87
2019-05-07T11:28:16.381Z,6.67
2019-05-07T11:30:46.122Z,6.50
2019-05-07T11:33:15.771Z,6.58
2019-05-07T11:35:49.470Z,6.35
2019-05-07T11:38:22.275Z,6.40
2019-05-07T11:40:51.770Z,6.28
2019-05-07T11:43:46.373Z,6.10
2019-05-07T11:46:22.093Z,5.92
2019-05-07T11:49:11.554Z,6.03
2019-05-07T11:51:51.699Z,5.70
2019-05-07T11:54:21.339Z,5.78
2019-05-07T11:56:58.345Z,5.53
2019-05-07T11:59:27.955Z,5.30
2019-05-07T12:02:02.121Z,6.12
2019-05-07T12:04:32.105Z,6.33
2019-05-07T12:07:02.568Z,6.10
2019-05-07T12:09:33.260Z,5.87
2019-05-07T12:12:03.008Z,5.53
2019-05-07T12:14:34.955Z,5.65
2019-05-07T12:17:03.887Z,5.85
2019-05-07T12:19:35.694Z,5.58
2019-05-07T12:22:06.377Z,5.37
2019-05-07T12:24:36.084Z,5.95
2019-05-07T12:27:05.635Z,5.65
2019-05-07T12:29:35.182Z,5.42
2019-05-07T12:32:18.547Z,4.90
2019-05-07T12:34:52.651Z,5.28
2019-05-07T12:37:22.506Z,6.35
2019-05-07T12:39:52.766Z,5.55
2019-05-07T12:42:22.484Z,4.90
2019-05-07T12:44:53.134Z,4.70
2019-05-07T12:47:22.673Z,5.47
2019-05-07T12:49:52.382Z,5.12
2019-05-07T12:52:26.247Z,6.15
2019-05-07T12:55:03.228Z,6.62
2019-05-07T12:57:42.153Z,5.87
2019-05-07T13:00:29.631Z,5.55
2019-05-07T13:03:24.327Z,5.30
2019-05-07T13:05:54.013Z,6.10
2019-05-07T13:08:23.610Z,5.05
2019-05-07T13:10:53.244Z,6.35
2019-05-07T13:13:23.095Z,5.72
2019-05-07T13:18:24.460Z,5.60
2019-05-07T13:20:55.350Z,5.72
2019-05-07T13:23:24.944Z,6.10
2019-05-07T13:25:54.521Z,4.83
2019-05-07T13:28:24.171Z,4.85
2019-05-07T13:30:53.786Z,5.45
2019-05-07T13:33:31.628Z,5.35
2019-05-07T13:36:02.304Z,4.80
2019-05-07T13:38:37.966Z,5.10
2019-05-07T13:41:14.983Z,4.97
2019-05-07T13:44:03.069Z,4.58
2019-05-07T13:46:33.397Z,5.22
2019-05-07T13:49:03.011Z,6.83
2019-05-07T13:51:33.987Z,6.17
2019-05-07T13:54:03.872Z,5.75
2019-05-07T13:56:33.483Z,6.00
2019-05-07T13:59:05.029Z,5.22
2019-05-07T14:01:41.144Z,5.40
2019-05-07T14:04:12.749Z,5.15
2019-05-07T14:06:43.278Z,5.10
2019-05-07T14:09:28.058Z,5.60
2019-05-07T14:11:57.889Z,5.55
2019-05-07T14:14:27.554Z,5.33
2019-05-07T14:16:57.288Z,5.47
2019-05-07T14:19:26.925Z,5.85
2019-05-07T14:21:56.543Z,5.55
2019-05-07T14:24:26.288Z,6.75
2019-05-07T14:26:56.148Z,5.75
2019-05-07T14:29:26.689Z,5.80
2019-05-07T14:32:04.030Z,5.87
2019-05-07T14:34:36.091Z,5.62
2019-05-07T14:37:22.513Z,5.90
2019-05-07T14:39:52.231Z,5.28
2019-05-07T14:42:28.960Z,5.55
2019-05-07T14:44:58.579Z,5.47
2019-05-07T14:47:28.191Z,6.03
2019-05-07T14:49:57.847Z,5.53
2019-05-07T14:52:36.193Z,5.25
2019-05-07T14:55:06.588Z,5.70
2019-05-07T14:57:36.235Z,5.65
2019-05-07T15:00:06.285Z,5.55
2019-05-07T15:02:36.983Z,5.30
2019-05-07T15:07:38.499Z,6.30
2019-05-07T15:10:08.203Z,6.12
2019-05-07T15:12:37.847Z,5.75
2019-05-07T15:15:07.588Z,5.90
2019-05-07T15:17:44.642Z,5.20
2019-05-07T15:20:16.394Z,6.05
2019-05-07T15:22:57.415Z,6.25
2019-05-07T15:25:28.005Z,10.40
2019-05-07T15:27:58.739Z,12.88
2019-05-07T15:30:33.892Z,8.70
2019-05-07T15:33:03.501Z,6.67
2019-05-07T15:35:33.148Z,6.90
2019-05-07T15:38:04.907Z,7.20
2019-05-07T15:40:34.506Z,6.80
2019-05-07T15:43:04.228Z,6.67
2019-05-07T15:45:33.832Z,7.03
2019-05-07T15:48:04.479Z,7.15
2019-05-07T15:50:34.065Z,6.62
2019-05-07T15:53:25.726Z,6.77
2019-05-07T15:55:55.379Z,6.10
2019-05-07T15:58:26.571Z,6.65
2019-05-07T16:00:58.163Z,6.50
2019-05-07T16:03:38.135Z,6.17
2019-05-07T16:06:07.824Z,13.27
2019-05-07T16:08:42.875Z,10.58
2019-05-07T16:11:15.865Z,7.20
2019-05-07T16:13:52.444Z,6.70
2019-05-07T16:16:23.573Z,5.78
2019-05-07T16:19:06.075Z,6.40
2019-05-07T16:21:35.833Z,6.45
2019-05-07T16:24:05.914Z,6.23
2019-05-07T16:26:35.775Z,6.95
2019-05-07T16:32:32.810Z,6.17
2019-05-07T16:35:32.098Z,5.62
2019-05-07T16:38:02.047Z,5.92
2019-05-07T16:40:32.446Z,5.90
2019-05-07T16:43:03.765Z,6.17
2019-05-07T16:45:43.722Z,6.40
2019-05-07T16:48:18.260Z,6.90
2019-05-07T16:51:12.670Z,6.20
2019-05-07T16:53:45.159Z,6.92
2019-05-07T16:56:17.103Z,6.60
2019-05-07T17:02:15.835Z,6.65
2019-05-07T17:05:07.523Z,6.25
2019-05-07T17:07:42.701Z,6.87
2019-05-07T17:10:12.432Z,6.92
2019-05-07T17:12:43.766Z,6.22
2019-05-07T17:15:13.497Z,6.35
2019-05-07T17:17:43.407Z,7.33
2019-05-07T17:20:13.279Z,7.20
2019-05-07T17:22:43.986Z,7.10
2019-05-07T17:25:33.405Z,6.58
2019-05-07T17:28:03.109Z,6.72
2019-05-07T17:30:32.848Z,7.35
2019-05-07T17:33:02.432Z,6.53
2019-05-07T17:35:34.403Z,7.03
2019-05-07T17:38:09.002Z,6.70
2019-05-07T17:40:36.310Z,16.82
2019-05-07T17:43:05.968Z,8.55
2019-05-07T17:45:37.675Z,7.20
2019-05-07T17:48:07.496Z,6.97
2019-05-07T17:50:42.971Z,6.80
2019-05-07T17:53:13.643Z,6.62
2019-05-07T17:55:43.285Z,6.47
2019-05-07T17:58:13.061Z,6.50
2019-05-07T18:00:44.280Z,7.30
2019-05-07T18:03:33.119Z,6.50
2019-05-07T18:06:05.924Z,6.58
2019-05-07T18:08:36.629Z,6.72
2019-05-07T18:11:17.434Z,6.80
2019-05-07T18:13:37.910Z,6.97
2019-05-07T18:16:24.391Z,6.53
2019-05-07T18:18:55.112Z,6.42
2019-05-07T18:21:26.967Z,6.87
2019-05-07T18:24:11.257Z,6.65
2019-05-07T18:26:30.914Z,6.83
2019-05-07T18:29:02.455Z,7.33
2019-05-07T18:31:48.995Z,8.50
2019-05-07T18:34:18.928Z,7.00
2019-05-07T18:36:49.936Z,6.90
2019-05-07T18:39:20.682Z,6.75
2019-05-07T18:41:52.423Z,6.58
2019-05-07T18:44:23.275Z,6.85
2019-05-07T18:49:22.677Z,6.97
2019-05-07T18:51:52.343Z,6.97
2019-05-07T18:54:30.292Z,7.17
2019-05-07T18:56:53.575Z,7.85
2019-05-07T18:59:27.892Z,7.50
2019-05-07T19:01:57.715Z,7.20
2019-05-07T19:04:30.100Z,7.55
2019-05-07T19:06:58.871Z,7.33
2019-05-07T19:09:28.704Z,7.27
2019-05-07T19:11:59.445Z,7.53
2019-05-07T19:16:58.280Z,11.18
2019-05-07T19:19:27.922Z,8.35
2019-05-07T19:21:57.755Z,8.25
2019-05-07T19:24:40.822Z,8.08
2019-05-07T19:26:58.788Z,7.87
2019-05-07T19:29:29.372Z,11.90
2019-05-07T19:31:59.103Z,12.82
2019-05-07T19:34:32.474Z,9.73
2019-05-07T19:37:02.674Z,8.70
2019-05-07T19:39:33.556Z,9.00
2019-05-07T19:42:03.434Z,8.50
2019-05-07T19:44:38.256Z,11.80
2019-05-07T19:47:07.866Z,14.35
2019-05-07T19:49:38.623Z,10.75
2019-05-07T19:52:08.513Z,9.38
2019-05-07T19:55:00.436Z,8.87
2019-05-07T19:57:26.550Z,8.30
2019-05-07T19:59:57.183Z,8.98
2019-05-07T20:02:32.149Z,8.53
2019-05-07T20:05:03.527Z,9.00
2019-05-07T20:07:33.376Z,8.43
2019-05-07T20:10:03.084Z,8.30
2019-05-07T20:12:32.820Z,8.63
2019-05-07T20:15:05.836Z,8.30
2019-05-07T20:17:37.746Z,8.68
2019-05-07T20:20:09.464Z,8.90
2019-05-07T20:22:40.195Z,8.85
2019-05-07T20:25:16.394Z,8.18
2019-05-07T20:27:42.179Z,9.00
2019-05-07T20:30:12.909Z,8.25
2019-05-07T20:32:44.648Z,9.18
2019-05-07T20:35:16.277Z,10.13
2019-05-07T20:37:45.939Z,9.20
2019-05-07T20:40:17.147Z,8.90
2019-05-07T20:42:46.715Z,9.05
2019-05-07T20:45:16.232Z,8.38
2019-05-07T20:47:45.959Z,8.75
2019-05-07T20:50:15.559Z,7.72
2019-05-07T20:52:47.772Z,8.38
2019-05-07T20:55:33.213Z,8.73
2019-05-07T20:58:00.240Z,8.28
2019-05-07T21:00:32.594Z,8.23
2019-05-07T21:03:23.813Z,8.08
2019-05-07T21:05:53.372Z,8.55
2019-05-07T21:08:23.212Z,8.03
2019-05-07T21:10:53.807Z,7.80
2019-05-07T21:13:30.910Z,8.73
2019-05-07T21:15:54.981Z,8.80
2019-05-07T21:18:24.586Z,8.28
2019-05-07T21:20:54.182Z,8.45
2019-05-07T21:23:23.778Z,9.50
2019-05-07T21:25:53.419Z,8.40
2019-05-07T21:28:23.210Z,8.73
2019-05-07T21:30:52.854Z,8.40
2019-05-07T21:33:22.990Z,8.28
2019-05-07T21:35:52.685Z,7.90
2019-05-07T21:38:22.636Z,8.63
2019-05-07T21:40:52.310Z,8.40
2019-05-07T21:43:22.971Z,8.68
2019-05-07T21:45:53.617Z,8.63
2019-05-07T21:48:23.214Z,8.03
2019-05-07T21:50:54.575Z,8.38
2019-05-07T21:53:29.614Z,8.05
2019-05-07T21:56:22.845Z,7.85
2019-05-07T21:59:03.012Z,8.83
2019-05-07T22:01:36.363Z,8.38
2019-05-07T22:04:06.003Z,8.15
2019-05-07T22:06:35.573Z,8.58
2019-05-07T22:09:07.432Z,8.20
2019-05-07T22:11:37.113Z,8.33
2019-05-07T22:14:06.718Z,8.30
2019-05-07T22:16:36.347Z,7.65
2019-05-07T22:19:06.122Z,8.20
2019-05-07T22:21:35.702Z,7.70
2019-05-07T22:24:05.335Z,7.90
2019-05-07T22:26:35.032Z,7.97
2019-05-07T22:29:04.558Z,8.13
2019-05-07T22:31:56.470Z,7.87
2019-05-07T22:34:33.477Z,7.55
2019-05-07T22:37:04.402Z,8.30
2019-05-07T22:39:35.576Z,8.40
2019-05-07T22:42:06.743Z,9.18
2019-05-07T22:44:36.395Z,8.18
2019-05-07T22:47:22.708Z,8.63
2019-05-07T22:49:53.572Z,8.53
2019-05-07T22:52:27.300Z,8.55
2019-05-07T22:54:57.020Z,7.87
2019-05-07T22:57:54.693Z,7.65
2019-05-07T23:00:42.534Z,8.00
2019-05-07T23:03:12.409Z,8.05
2019-05-07T23:05:44.979Z,7.60
2019-05-07T23:08:14.829Z,7.53
2019-05-07T23:10:44.669Z,8.33
2019-05-07T23:13:14.319Z,7.80
2019-05-07T23:15:43.936Z,7.33
2019-05-07T23:18:13.536Z,7.85
2019-05-07T23:20:43.075Z,7.25
2019-05-07T23:23:14.217Z,8.23
2019-05-07T23:25:44.001Z,7.67
2019-05-07T23:28:14.615Z,7.80
2019-05-07T23:30:44.412Z,7.58
2019-05-07T23:33:14.046Z,7.70
2019-05-07T23:35:43.589Z,7.60
2019-05-07T23:38:15.913Z,8.30
2019-05-07T23:40:56.069Z,8.10
2019-05-07T23:43:25.653Z,7.75
2019-05-07T23:45:55.283Z,7.45
2019-05-07T23:48:24.936Z,7.55
2019-05-07T23:50:55.536Z,7.95
2019-05-07T23:53:25.160Z,8.65
2019-05-07T23:55:54.730Z,7.70
2019-05-07T23:58:24.356Z,7.53
